createdAt,value
2023-04-13T00:01:45.946Z,7.00
2023-04-13T00:04:31.576Z,6.80
2023-04-13T00:07:18.376Z,6.90
2023-04-13T00:10:05.174Z,6.90
2023-04-13T00:12:51.070Z,6.90
2023-04-13T00:15:40.524Z,6.80
2023-04-13T00:18:25.917Z,6.80
2023-04-13T00:21:12.116Z,6.80
2023-04-13T00:23:57.722Z,6.60
2023-04-13T00:26:44.919Z,6.60
2023-04-13T00:29:30.384Z,6.50
2023-04-13T00:32:15.785Z,6.60
2023-04-13T00:35:01.070Z,7.80
2023-04-13T00:37:49.324Z,6.80
2023-04-13T00:40:37.742Z,7.20
2023-04-13T00:43:23.929Z,6.50
2023-04-13T00:46:09.657Z,6.50
2023-04-13T00:48:55.802Z,6.50
2023-04-13T00:51:42.715Z,6.60
2023-04-13T00:54:29.432Z,7.30
2023-04-13T00:57:17.231Z,6.70
2023-04-13T01:00:09.279Z,6.40
2023-04-13T01:02:55.613Z,6.40
2023-04-13T01:05:51.781Z,8.10
2023-04-13T01:08:47.003Z,7.50
2023-04-13T01:11:40.040Z,6.30
2023-04-13T01:14:37.481Z,6.20
2023-04-13T01:17:27.629Z,6.20
2023-04-13T01:20:16.456Z,7.30
2023-04-13T01:23:07.553Z,6.30
2023-04-13T01:26:01.581Z,6.20
2023-04-13T01:28:47.816Z,6.10
2023-04-13T01:31:35.916Z,6.20
2023-04-13T01:34:23.426Z,6.10
2023-04-13T01:37:10.751Z,6.00
2023-04-13T01:39:55.986Z,5.90
2023-04-13T01:42:42.970Z,6.50
2023-04-13T01:45:34.605Z,7.60
2023-04-13T01:48:28.502Z,5.90
2023-04-13T01:51:19.932Z,5.90
2023-04-13T01:54:13.967Z,5.70
2023-04-13T01:57:00.344Z,5.70
2023-04-13T01:59:45.711Z,5.30
2023-04-13T02:02:31.044Z,4.40
2023-04-13T02:05:16.417Z,7.50
2023-04-13T02:08:03.840Z,5.60
2023-04-13T02:10:50.194Z,5.50
2023-04-13T02:13:35.528Z,5.40
2023-04-13T02:16:21.100Z,5.40
2023-04-13T02:19:06.591Z,4.40
2023-04-13T02:21:51.890Z,5.30
2023-04-13T02:24:37.503Z,5.30
2023-04-13T02:27:24.157Z,6.00
2023-04-13T02:30:10.233Z,5.30
2023-04-13T02:32:56.222Z,5.30
2023-04-13T02:35:41.972Z,5.80
2023-04-13T02:38:31.993Z,5.40
2023-04-13T02:41:22.859Z,6.00
2023-04-13T02:44:08.832Z,5.10
2023-04-13T02:46:54.417Z,5.30
2023-04-13T02:49:40.255Z,5.30
2023-04-13T02:52:25.821Z,5.30
2023-04-13T02:55:11.730Z,5.20
2023-04-13T02:57:58.105Z,5.20
2023-04-13T03:00:44.684Z,5.10
2023-04-13T03:03:30.590Z,5.00
2023-04-13T03:06:16.382Z,6.40
2023-04-13T03:09:01.750Z,5.00
2023-04-13T03:11:47.311Z,8.00
2023-04-13T03:14:33.249Z,6.80
2023-04-13T03:17:19.834Z,5.30
2023-04-13T03:20:09.662Z,4.80
2023-04-13T03:22:55.725Z,4.80
2023-04-13T03:25:41.358Z,5.20
2023-04-13T03:28:26.803Z,5.00
2023-04-13T03:31:13.180Z,4.80
2023-04-13T03:33:59.293Z,5.90
2023-04-13T03:36:45.088Z,4.90
2023-04-13T03:39:30.828Z,4.80
2023-04-13T03:42:16.574Z,4.80
2023-04-13T03:45:02.270Z,4.80
2023-04-13T03:47:47.657Z,6.10
2023-04-13T03:50:33.304Z,4.40
2023-04-13T03:53:18.748Z,4.30
2023-04-13T03:56:05.153Z,4.40
2023-04-13T03:58:51.184Z,4.10
2023-04-13T04:01:36.500Z,4.50
2023-04-13T04:04:21.923Z,4.40
2023-04-13T04:07:07.738Z,4.30
2023-04-13T04:09:53.084Z,4.70
2023-04-13T04:12:38.589Z,5.30
2023-04-13T04:15:24.156Z,4.30
2023-04-13T04:18:10.623Z,4.90
2023-04-13T04:20:56.351Z,4.60
2023-04-13T04:23:41.672Z,4.60
2023-04-13T04:26:28.212Z,4.60
2023-04-13T04:29:13.884Z,4.60
2023-04-13T04:31:59.146Z,4.50
2023-04-13T04:34:44.821Z,4.40
2023-04-13T04:37:37.708Z,4.40
2023-04-13T04:40:23.478Z,4.70
2023-04-13T04:43:08.944Z,4.40
2023-04-13T04:45:57.654Z,4.30
2023-04-13T04:48:43.157Z,4.10
2023-04-13T04:51:28.769Z,3.90
2023-04-13T04:54:16.876Z,3.90
2023-04-13T04:57:02.278Z,4.00
2023-04-13T04:59:49.271Z,4.40
2023-04-13T05:02:34.885Z,3.80
2023-04-13T05:05:20.696Z,4.20
2023-04-13T05:08:06.271Z,4.40
2023-04-13T05:10:51.908Z,4.40
2023-04-13T05:13:37.575Z,5.70
2023-04-13T05:16:23.636Z,4.50
2023-04-13T05:19:09.616Z,4.50
2023-04-13T05:21:55.226Z,5.30
2023-04-13T05:24:41.081Z,5.10
2023-04-13T05:27:26.722Z,5.70
2023-04-13T05:30:12.526Z,4.50
2023-04-13T05:32:58.117Z,4.50
2023-04-13T05:35:44.073Z,4.50
2023-04-13T05:38:29.836Z,6.50
2023-04-13T05:41:15.131Z,4.30
2023-04-13T05:44:00.881Z,4.60
2023-04-13T05:46:46.833Z,4.90
2023-04-13T05:49:32.884Z,4.90
2023-04-13T05:52:18.456Z,5.40
2023-04-13T05:55:04.070Z,5.10
2023-04-13T05:57:50.768Z,5.20
2023-04-13T06:00:37.673Z,5.30
2023-04-13T06:03:23.562Z,6.20
2023-04-13T06:06:10.357Z,8.70
2023-04-13T06:08:57.162Z,6.00
2023-04-13T06:11:42.721Z,7.50
2023-04-13T06:14:28.422Z,6.30
2023-04-13T06:17:14.065Z,7.90
2023-04-13T06:19:59.708Z,6.80
2023-04-13T06:22:45.175Z,6.60
2023-04-13T06:25:31.532Z,7.00
2023-04-13T06:28:17.307Z,7.10
2023-04-13T06:31:02.482Z,7.10
2023-04-13T06:33:48.099Z,7.00
2023-04-13T06:36:33.601Z,6.80
2023-04-13T06:39:18.867Z,6.50
2023-04-13T06:42:07.298Z,6.50
2023-04-13T06:44:52.828Z,6.30
2023-04-13T06:47:42.461Z,6.50
2023-04-13T06:50:27.883Z,6.60
2023-04-13T06:53:13.221Z,6.60
2023-04-13T06:55:59.014Z,6.60
2023-04-13T06:58:45.395Z,6.80
2023-04-13T07:01:31.391Z,6.90
2023-04-13T07:04:16.921Z,7.80
2023-04-13T07:07:02.610Z,6.80
2023-04-13T07:09:47.870Z,8.10
2023-04-13T07:12:35.040Z,7.40
2023-04-13T07:15:20.715Z,7.40
2023-04-13T07:18:06.359Z,7.50
2023-04-13T07:20:52.669Z,7.70
2023-04-13T07:23:38.005Z,8.50
2023-04-13T07:26:23.303Z,9.20
2023-04-13T07:29:13.528Z,7.30
2023-04-13T07:32:04.355Z,7.60
2023-04-13T07:34:51.177Z,7.60
2023-04-13T07:37:36.818Z,7.70
2023-04-13T07:40:22.225Z,7.80
2023-04-13T07:43:07.763Z,8.30
2023-04-13T07:45:53.448Z,7.90
2023-04-13T07:48:39.061Z,8.00
2023-04-13T07:51:24.495Z,9.30
2023-04-13T07:54:09.888Z,8.20
2023-04-13T07:56:56.777Z,9.00
2023-04-13T07:59:42.264Z,7.90
2023-04-13T08:02:27.493Z,7.90
2023-04-13T08:05:13.273Z,8.30
2023-04-13T08:07:58.754Z,7.50
2023-04-13T08:10:44.051Z,7.60
2023-04-13T08:13:30.140Z,7.60
2023-04-13T08:16:16.060Z,7.80
2023-04-13T08:19:02.201Z,8.20
2023-04-13T08:21:47.788Z,8.00
2023-04-13T08:24:33.761Z,8.10
2023-04-13T08:27:19.865Z,8.50
2023-04-13T08:30:07.697Z,8.50
2023-04-13T08:32:53.804Z,8.10
2023-04-13T08:35:39.880Z,8.90
2023-04-13T08:38:25.232Z,9.10
2023-04-13T08:41:11.019Z,9.10
2023-04-13T08:44:02.249Z,9.60
2023-04-13T08:46:51.257Z,9.00
2023-04-13T08:49:39.450Z,8.60
2023-04-13T08:52:26.146Z,8.40
2023-04-13T08:55:11.626Z,9.40
2023-04-13T08:57:58.369Z,9.10
2023-04-13T09:00:44.273Z,10.00
2023-04-13T09:03:35.618Z,8.90
2023-04-13T09:06:26.846Z,9.10
2023-04-13T09:09:17.058Z,9.30
2023-04-13T09:12:02.653Z,9.30
2023-04-13T09:14:48.218Z,11.60
2023-04-13T09:17:34.264Z,10.00
2023-04-13T09:20:23.760Z,10.30
2023-04-13T09:23:16.313Z,10.60
2023-04-13T09:26:09.474Z,10.20
2023-04-13T09:28:58.457Z,9.70
2023-04-13T09:31:45.695Z,10.60
2023-04-13T09:34:31.475Z,10.40
2023-04-13T09:37:18.618Z,9.80
2023-04-13T09:40:30.916Z,10.90
2023-04-13T09:43:16.071Z,10.40
2023-04-13T09:46:01.826Z,9.60
2023-04-13T09:49:04.970Z,10.40
2023-04-13T09:51:50.504Z,9.40
2023-04-13T09:54:36.683Z,8.90
2023-04-13T09:57:26.206Z,8.70
2023-04-13T10:00:19.373Z,8.80
2023-04-13T10:03:09.261Z,8.60
2023-04-13T10:06:00.239Z,8.90
2023-04-13T10:08:46.534Z,8.70
2023-04-13T10:11:39.190Z,8.60
2023-04-13T10:14:34.449Z,8.80
2023-04-13T10:17:20.282Z,11.00
2023-04-13T10:20:16.153Z,10.70
2023-04-13T10:23:02.987Z,10.30
2023-04-13T10:25:55.335Z,10.10
2023-04-13T10:28:45.246Z,11.10
2023-04-13T10:31:48.176Z,12.00
2023-04-13T10:34:36.028Z,11.70
2023-04-13T10:37:23.477Z,11.70
2023-04-13T10:40:10.445Z,12.40
2023-04-13T10:42:56.172Z,13.00
2023-04-13T10:45:41.562Z,12.70
2023-04-13T10:48:27.287Z,12.30
2023-04-13T10:51:12.887Z,12.00
2023-04-13T10:54:05.377Z,10.70
2023-04-13T10:57:02.540Z,10.70
2023-04-13T10:59:57.979Z,11.20
2023-04-13T11:02:45.492Z,12.60
2023-04-13T11:05:31.883Z,12.20
2023-04-13T11:08:21.216Z,11.40
2023-04-13T11:11:06.860Z,11.60
2023-04-13T11:13:52.719Z,12.70
2023-04-13T11:16:45.662Z,11.70
2023-04-13T11:19:31.023Z,12.50
2023-04-13T11:22:18.889Z,12.40
2023-04-13T11:25:10.906Z,11.90
2023-04-13T11:27:56.890Z,11.60
2023-04-13T11:30:42.536Z,12.50
2023-04-13T11:33:30.119Z,12.60
2023-04-13T11:36:20.061Z,13.10
2023-04-13T11:39:10.735Z,13.50
2023-04-13T11:41:57.234Z,12.90
2023-04-13T11:44:45.673Z,12.00
2023-04-13T11:47:32.411Z,12.10
2023-04-13T11:50:18.831Z,10.30
2023-04-13T11:53:04.360Z,9.60
2023-04-13T11:55:53.749Z,10.30
2023-04-13T11:58:39.792Z,8.50
2023-04-13T12:01:29.991Z,8.60
2023-04-13T12:04:19.807Z,8.50
2023-04-13T12:07:14.545Z,8.10
2023-04-13T12:10:05.342Z,7.80
2023-04-13T12:13:17.413Z,7.70
2023-04-13T12:16:13.345Z,6.90
2023-04-13T12:19:10.787Z,7.50
2023-04-13T12:22:00.389Z,7.50
2023-04-13T12:24:45.911Z,7.30
2023-04-13T12:27:40.078Z,7.90
2023-04-13T12:30:26.398Z,7.70
2023-04-13T12:33:12.266Z,7.90
2023-04-13T12:35:57.732Z,8.60
2023-04-13T12:38:43.204Z,9.20
2023-04-13T12:41:28.701Z,9.50
2023-04-13T12:44:14.795Z,10.20
2023-04-13T12:47:00.568Z,10.30
2023-04-13T12:49:45.914Z,9.80
2023-04-13T12:52:32.403Z,9.30
2023-04-13T12:55:18.391Z,8.70
2023-04-13T12:58:03.549Z,8.80
2023-04-13T13:00:49.404Z,10.50
2023-04-13T13:03:36.998Z,8.90
2023-04-13T13:06:22.543Z,9.30
2023-04-13T13:09:08.019Z,9.80
2023-04-13T13:11:53.667Z,10.20
2023-04-13T13:14:39.013Z,10.80
2023-04-13T13:17:24.862Z,11.20
2023-04-13T13:20:15.407Z,11.40
2023-04-13T13:23:00.662Z,11.10
2023-04-13T13:25:59.260Z,11.10
2023-04-13T13:28:53.584Z,10.60
2023-04-13T13:31:41.390Z,10.70
2023-04-13T13:34:26.944Z,10.90
2023-04-13T13:37:12.614Z,8.80
2023-04-13T13:39:58.210Z,7.70
2023-04-13T13:42:51.884Z,8.20
2023-04-13T13:45:37.845Z,6.70
2023-04-13T13:48:24.122Z,7.70
2023-04-13T13:51:09.461Z,6.50
2023-04-13T13:53:54.918Z,6.70
2023-04-13T13:56:40.607Z,6.40
2023-04-13T13:59:25.931Z,6.30
2023-04-13T14:02:11.460Z,6.50
2023-04-13T14:04:56.738Z,5.90
2023-04-13T14:07:43.742Z,7.50
2023-04-13T14:10:29.110Z,6.10
2023-04-13T14:13:14.418Z,7.20
2023-04-13T14:16:00.047Z,5.70
2023-04-13T14:18:46.566Z,5.60
2023-04-13T14:21:33.417Z,5.40
2023-04-13T14:24:18.755Z,6.80
2023-04-13T14:27:04.276Z,5.90
2023-04-13T14:29:49.832Z,6.00
2023-04-13T14:32:35.458Z,6.00
2023-04-13T14:35:21.032Z,5.40
2023-04-13T14:38:08.470Z,5.50
2023-04-13T14:40:54.269Z,6.00
2023-04-13T14:43:39.738Z,4.70
2023-04-13T14:46:28.218Z,6.60
2023-04-13T14:49:16.661Z,5.10
2023-04-13T14:52:01.884Z,5.30
2023-04-13T14:54:47.273Z,5.70
2023-04-13T14:57:33.226Z,5.60
2023-04-13T15:00:22.421Z,7.10
2023-04-13T15:03:09.593Z,5.50
2023-04-13T15:06:02.897Z,5.30
2023-04-13T15:08:49.709Z,6.30
2023-04-13T15:11:35.170Z,4.90
2023-04-13T15:14:20.664Z,5.10
2023-04-13T15:17:07.130Z,5.10
2023-04-13T15:19:52.408Z,5.10
2023-04-13T15:22:38.185Z,5.50
2023-04-13T15:25:24.352Z,6.40
2023-04-13T15:28:10.554Z,6.10
2023-04-13T15:30:56.210Z,5.50
2023-04-13T15:33:41.813Z,5.60
2023-04-13T15:36:27.927Z,6.00
2023-04-13T15:39:13.128Z,5.70
2023-04-13T15:42:00.482Z,5.80
2023-04-13T15:44:45.940Z,5.80
2023-04-13T15:47:32.792Z,5.90
2023-04-13T15:50:19.725Z,6.20
2023-04-13T15:53:06.301Z,6.00
2023-04-13T15:55:51.620Z,6.00
2023-04-13T15:58:36.940Z,6.50
2023-04-13T16:01:22.477Z,6.70
2023-04-13T16:04:08.111Z,6.40
2023-04-13T16:07:08.989Z,6.50
2023-04-13T16:09:58.437Z,6.50
2023-04-13T16:12:45.441Z,6.80
2023-04-13T16:15:30.985Z,6.90
2023-04-13T16:18:16.401Z,7.00
2023-04-13T16:21:03.623Z,6.90
2023-04-13T16:23:49.080Z,6.60
2023-04-13T16:26:35.117Z,6.60
2023-04-13T16:29:20.665Z,6.30
2023-04-13T16:32:06.488Z,6.50
2023-04-13T16:34:51.876Z,6.70
2023-04-13T16:37:38.821Z,6.70
2023-04-13T16:40:24.280Z,6.60
2023-04-13T16:43:09.662Z,6.80
2023-04-13T16:45:55.306Z,6.40
2023-04-13T16:48:40.751Z,6.20
2023-04-13T16:51:27.359Z,6.30
2023-04-13T16:54:14.055Z,6.10
2023-04-13T16:56:59.567Z,5.90
2023-04-13T16:59:44.804Z,6.00
2023-04-13T17:02:31.680Z,7.50
2023-04-13T17:05:17.426Z,6.20
2023-04-13T17:08:04.594Z,6.50
2023-04-13T17:10:51.256Z,7.10
2023-04-13T17:13:39.161Z,6.20
2023-04-13T17:16:27.055Z,5.90
2023-04-13T17:19:12.606Z,5.90
2023-04-13T17:21:58.076Z,5.90
2023-04-13T17:24:43.736Z,5.90
2023-04-13T17:27:29.089Z,7.60
2023-04-13T17:30:14.968Z,6.90
2023-04-13T17:33:00.643Z,5.90
2023-04-13T17:35:46.402Z,5.50
2023-04-13T17:38:31.951Z,5.90
2023-04-13T17:41:17.668Z,5.90
2023-04-13T17:44:03.922Z,5.70
2023-04-13T17:46:50.354Z,5.80
2023-04-13T17:49:36.893Z,5.60
2023-04-13T17:52:22.305Z,5.50
2023-04-13T17:55:08.118Z,5.50
2023-04-13T17:57:53.707Z,5.40
2023-04-13T18:00:39.360Z,7.50
2023-04-13T18:03:25.055Z,5.90
2023-04-13T18:06:10.776Z,5.10
2023-04-13T18:08:56.092Z,5.10
2023-04-13T18:11:41.778Z,5.40
2023-04-13T18:14:27.471Z,5.00
2023-04-13T18:17:13.067Z,5.00
2023-04-13T18:19:58.518Z,4.90
2023-04-13T18:22:44.185Z,4.90
2023-04-13T18:25:29.568Z,4.90
2023-04-13T18:28:15.155Z,4.80
2023-04-13T18:31:01.344Z,6.00
2023-04-13T18:33:47.030Z,4.70
2023-04-13T18:36:33.596Z,4.70
2023-04-13T18:39:19.257Z,4.80
2023-04-13T18:42:05.078Z,4.50
2023-04-13T18:44:50.249Z,4.70
2023-04-13T18:47:35.971Z,4.50
2023-04-13T18:50:21.405Z,4.50
2023-04-13T18:53:07.109Z,4.50
2023-04-13T18:55:52.669Z,4.60
2023-04-13T18:58:38.288Z,4.50
2023-04-13T19:01:23.744Z,4.40
2023-04-13T19:04:09.134Z,4.50
2023-04-13T19:06:54.845Z,4.60
2023-04-13T19:09:40.907Z,4.60
2023-04-13T19:12:26.498Z,4.60
2023-04-13T19:15:12.162Z,6.00
2023-04-13T19:17:57.564Z,4.60
2023-04-13T19:20:42.839Z,5.30
2023-04-13T19:23:28.989Z,4.50
2023-04-13T19:26:17.348Z,4.50
2023-04-13T19:29:04.153Z,5.20
2023-04-13T19:31:52.429Z,4.50
2023-04-13T19:34:37.874Z,4.60
2023-04-13T19:37:23.211Z,4.60
2023-04-13T19:40:15.375Z,6.00
2023-04-13T19:43:01.097Z,4.70
2023-04-13T19:45:46.523Z,4.70
2023-04-13T19:48:32.255Z,4.70
2023-04-13T19:51:17.727Z,5.60
2023-04-13T19:54:05.036Z,5.40
2023-04-13T19:56:50.752Z,4.60
2023-04-13T19:59:35.868Z,4.90
2023-04-13T20:02:21.989Z,4.60
2023-04-13T20:05:07.892Z,4.50
2023-04-13T20:07:53.455Z,4.60
2023-04-13T20:10:38.698Z,4.70
2023-04-13T20:13:24.223Z,4.90
2023-04-13T20:16:10.850Z,4.70
2023-04-13T20:18:56.544Z,4.60
2023-04-13T20:21:42.331Z,4.60
2023-04-13T20:24:27.717Z,6.00
2023-04-13T20:27:12.939Z,3.90
2023-04-13T20:29:58.474Z,6.40
2023-04-13T20:32:44.153Z,4.70
2023-04-13T20:35:29.717Z,5.50
2023-04-13T20:38:15.268Z,4.70
2023-04-13T20:41:01.225Z,4.80
2023-04-13T20:43:49.783Z,4.80
2023-04-13T20:46:35.811Z,4.80
2023-04-13T20:49:23.303Z,4.70
2023-04-13T20:52:08.408Z,4.60
2023-04-13T20:54:54.760Z,5.30
2023-04-13T20:57:41.963Z,4.70
2023-04-13T21:00:28.621Z,4.70
2023-04-13T21:03:13.985Z,4.80
2023-04-13T21:06:00.082Z,4.80
2023-04-13T21:08:45.557Z,4.30
2023-04-13T21:11:30.811Z,5.90
2023-04-13T21:14:16.424Z,4.90
2023-04-13T21:17:01.944Z,5.30
2023-04-13T21:19:47.470Z,4.90
2023-04-13T21:22:33.120Z,6.40
2023-04-13T21:25:18.489Z,4.70
2023-04-13T21:28:04.167Z,4.80
2023-04-13T21:30:49.477Z,4.60
2023-04-13T21:33:35.493Z,4.60
2023-04-13T21:39:09.164Z,6.00
2023-04-13T21:41:54.736Z,4.50
2023-04-13T21:44:39.980Z,4.50
2023-04-13T21:47:25.446Z,4.60
2023-04-13T21:50:11.219Z,5.10
2023-04-13T21:52:56.573Z,4.90
2023-04-13T21:55:42.106Z,6.30
2023-04-13T21:58:29.741Z,4.90
2023-04-13T22:01:15.669Z,6.30
2023-04-13T22:04:01.194Z,5.00
2023-04-13T22:06:46.970Z,4.80
2023-04-13T22:09:32.477Z,5.00
2023-04-13T22:12:17.905Z,5.00
2023-04-13T22:15:03.614Z,6.50
2023-04-13T22:17:48.944Z,5.00
2023-04-13T22:20:34.581Z,5.10
2023-04-13T22:23:19.885Z,5.40
2023-04-13T22:26:05.682Z,5.00
2023-04-13T22:28:51.185Z,4.90
2023-04-13T22:31:37.072Z,4.70
2023-04-13T22:34:22.247Z,4.80
2023-04-13T22:37:07.921Z,4.50
2023-04-13T22:39:53.312Z,4.60
2023-04-13T22:42:38.725Z,4.60
2023-04-13T22:45:24.297Z,4.60
2023-04-13T22:48:09.812Z,4.70
2023-04-13T22:50:56.294Z,6.20
2023-04-13T22:53:41.931Z,4.80
2023-04-13T22:56:27.456Z,4.90
2023-04-13T22:59:12.946Z,5.50
2023-04-13T23:02:01.154Z,6.40
2023-04-13T23:04:46.788Z,6.20
2023-04-13T23:07:32.535Z,4.90
2023-04-13T23:10:19.215Z,4.80
2023-04-13T23:13:04.819Z,5.00
2023-04-13T23:15:50.522Z,4.90
2023-04-13T23:18:35.866Z,4.90
2023-04-13T23:21:21.544Z,5.00
2023-04-13T23:24:06.804Z,5.00
2023-04-13T23:26:52.332Z,4.90
2023-04-13T23:29:39.770Z,5.00
2023-04-13T23:32:25.706Z,4.60
2023-04-13T23:35:11.086Z,4.90
2023-04-13T23:37:56.656Z,4.70
2023-04-13T23:40:42.161Z,4.80
2023-04-13T23:43:27.596Z,4.70
2023-04-13T23:46:13.190Z,4.60
2023-04-13T23:48:58.461Z,4.40
2023-04-13T23:51:43.979Z,4.30
2023-04-13T23:54:29.194Z,4.40
2023-04-13T23:57:14.813Z,4.50
